sensor_id;sensor_type;location;lat;lon;timestamp;P1;durP1;ratioP1;P2;durP2;ratioP2
45366;SDS011;31100;55.848;37.636;2022-09-27T00:01:35;13.15;;;7.10;;
45366;SDS011;31100;55.848;37.636;2022-09-27T00:04:00;12.32;;;6.85;;
45366;SDS011;31100;55.848;37.636;2022-09-27T00:06:27;12.98;;;7.15;;
45366;SDS011;31100;55.848;37.636;2022-09-27T00:08:53;12.15;;;7.30;;
45366;SDS011;31100;55.848;37.636;2022-09-27T00:11:29;9.95;;;6.20;;
45366;SDS011;31100;55.848;37.636;2022-09-27T00:13:57;18.05;;;8.63;;
45366;SDS011;31100;55.848;37.636;2022-09-27T00:16:24;13.55;;;7.60;;
45366;SDS011;31100;55.848;37.636;2022-09-27T00:18:51;12.18;;;7.30;;
45366;SDS011;31100;55.848;37.636;2022-09-27T00:21:16;12.32;;;7.20;;
45366;SDS011;31100;55.848;37.636;2022-09-27T00:23:42;14.32;;;6.78;;
45366;SDS011;31100;55.848;37.636;2022-09-27T00:26:09;24.65;;;7.65;;
45366;SDS011;31100;55.848;37.636;2022-09-27T00:28:36;39.30;;;8.52;;
45366;SDS011;31100;55.848;37.636;2022-09-27T00:31:02;27.58;;;7.97;;
45366;SDS011;31100;55.848;37.636;2022-09-27T00:33:28;13.43;;;7.50;;
45366;SDS011;31100;55.848;37.636;2022-09-27T00:35:53;34.67;;;7.82;;
45366;SDS011;31100;55.848;37.636;2022-09-27T00:38:19;15.23;;;7.45;;
45366;SDS011;31100;55.848;37.636;2022-09-27T00:40:44;24.05;;;7.57;;
45366;SDS011;31100;55.848;37.636;2022-09-27T00:43:18;21.85;;;8.57;;
45366;SDS011;31100;55.848;37.636;2022-09-27T00:45:47;26.90;;;8.10;;
45366;SDS011;31100;55.848;37.636;2022-09-27T00:48:16;19.95;;;7.25;;
45366;SDS011;31100;55.848;37.636;2022-09-27T00:50:44;27.98;;;7.97;;
45366;SDS011;31100;55.848;37.636;2022-09-27T00:55:43;359.45;;;27.13;;
45366;SDS011;31100;55.848;37.636;2022-09-27T00:58:13;76.82;;;10.93;;
45366;SDS011;31100;55.848;37.636;2022-09-27T01:00:41;26.98;;;8.10;;
45366;SDS011;31100;55.848;37.636;2022-09-27T01:03:09;23.50;;;8.48;;
45366;SDS011;31100;55.848;37.636;2022-09-27T01:05:38;13.30;;;6.97;;
45366;SDS011;31100;55.848;37.636;2022-09-27T01:08:05;147.38;;;13.45;;
45366;SDS011;31100;55.848;37.636;2022-09-27T01:10:35;11.40;;;7.10;;
45366;SDS011;31100;55.848;37.636;2022-09-27T01:16:05;11.57;;;6.50;;
45366;SDS011;31100;55.848;37.636;2022-09-27T01:18:42;11.63;;;7.30;;
45366;SDS011;31100;55.848;37.636;2022-09-27T01:32:27;12.98;;;7.25;;
45366;SDS011;31100;55.848;37.636;2022-09-27T01:35:39;10.07;;;6.53;;
45366;SDS011;31100;55.848;37.636;2022-09-27T01:40:50;9.73;;;5.90;;
45366;SDS011;31100;55.848;37.636;2022-09-27T01:43:26;14.45;;;6.43;;
45366;SDS011;31100;55.848;37.636;2022-09-27T01:45:56;10.48;;;6.47;;
45366;SDS011;31100;55.848;37.636;2022-09-27T01:48:23;11.18;;;6.70;;
45366;SDS011;31100;55.848;37.636;2022-09-27T01:53:45;10.93;;;6.68;;
45366;SDS011;31100;55.848;37.636;2022-09-27T01:56:14;11.25;;;5.90;;
45366;SDS011;31100;55.848;37.636;2022-09-27T01:58:52;10.60;;;6.28;;
45366;SDS011;31100;55.848;37.636;2022-09-27T02:01:43;10.82;;;6.47;;
45366;SDS011;31100;55.848;37.636;2022-09-27T02:04:10;9.98;;;6.13;;
45366;SDS011;31100;55.848;37.636;2022-09-27T02:06:40;8.20;;;5.90;;
45366;SDS011;31100;55.848;37.636;2022-09-27T02:09:09;10.48;;;6.70;;
45366;SDS011;31100;55.848;37.636;2022-09-27T02:11:38;8.75;;;5.68;;
45366;SDS011;31100;55.848;37.636;2022-09-27T02:24:56;8.65;;;5.45;;
45366;SDS011;31100;55.848;37.636;2022-09-27T02:27:30;9.50;;;6.07;;
45366;SDS011;31100;55.848;37.636;2022-09-27T02:30:05;9.02;;;5.72;;
45366;SDS011;31100;55.848;37.636;2022-09-27T02:32:33;7.85;;;5.43;;
45366;SDS011;31100;55.848;37.636;2022-09-27T02:34:59;7.38;;;5.22;;
45366;SDS011;31100;55.848;37.636;2022-09-27T02:37:29;9.35;;;6.20;;
45366;SDS011;31100;55.848;37.636;2022-09-27T02:39:55;9.07;;;5.40;;
45366;SDS011;31100;55.848;37.636;2022-09-27T02:42:21;10.48;;;5.65;;
45366;SDS011;31100;55.848;37.636;2022-09-27T02:44:47;7.70;;;5.32;;
45366;SDS011;31100;55.848;37.636;2022-09-27T03:00:34;8.25;;;5.35;;
45366;SDS011;31100;55.848;37.636;2022-09-27T03:03:04;7.68;;;5.47;;
45366;SDS011;31100;55.848;37.636;2022-09-27T03:05:38;8.63;;;5.50;;
45366;SDS011;31100;55.848;37.636;2022-09-27T03:08:06;12.13;;;6.07;;
45366;SDS011;31100;55.848;37.636;2022-09-27T03:10:32;11.75;;;6.32;;
45366;SDS011;31100;55.848;37.636;2022-09-27T03:12:57;37.70;;;20.30;;
45366;SDS011;31100;55.848;37.636;2022-09-27T03:15:23;12.43;;;7.88;;
45366;SDS011;31100;55.848;37.636;2022-09-27T03:17:48;15.35;;;6.72;;
45366;SDS011;31100;55.848;37.636;2022-09-27T03:20:14;38.70;;;8.38;;
45366;SDS011;31100;55.848;37.636;2022-09-27T03:22:39;51.70;;;9.77;;
45366;SDS011;31100;55.848;37.636;2022-09-27T03:25:06;61.10;;;10.52;;
45366;SDS011;31100;55.848;37.636;2022-09-27T03:27:32;42.25;;;8.95;;
45366;SDS011;31100;55.848;37.636;2022-09-27T03:29:58;29.98;;;6.93;;
45366;SDS011;31100;55.848;37.636;2022-09-27T03:32:23;42.08;;;8.60;;
45366;SDS011;31100;55.848;37.636;2022-09-27T03:34:50;59.72;;;10.02;;
45366;SDS011;31100;55.848;37.636;2022-09-27T03:37:15;28.88;;;7.13;;
45366;SDS011;31100;55.848;37.636;2022-09-27T03:39:41;102.63;;;11.82;;
45366;SDS011;31100;55.848;37.636;2022-09-27T03:42:06;61.65;;;9.88;;
45366;SDS011;31100;55.848;37.636;2022-09-27T03:44:32;58.17;;;9.85;;
45366;SDS011;31100;55.848;37.636;2022-09-27T03:46:58;47.40;;;8.32;;
45366;SDS011;31100;55.848;37.636;2022-09-27T03:49:24;50.40;;;9.57;;
45366;SDS011;31100;55.848;37.636;2022-09-27T03:51:49;34.85;;;8.88;;
45366;SDS011;31100;55.848;37.636;2022-09-27T03:54:15;22.83;;;8.00;;
45366;SDS011;31100;55.848;37.636;2022-09-27T03:56:40;37.60;;;10.95;;
45366;SDS011;31100;55.848;37.636;2022-09-27T03:59:06;20.33;;;8.55;;
45366;SDS011;31100;55.848;37.636;2022-09-27T04:01:31;16.17;;;7.47;;
45366;SDS011;31100;55.848;37.636;2022-09-27T04:03:59;14.05;;;7.57;;
45366;SDS011;31100;55.848;37.636;2022-09-27T04:06:24;17.92;;;7.82;;
45366;SDS011;31100;55.848;37.636;2022-09-27T04:08:51;20.58;;;9.00;;
45366;SDS011;31100;55.848;37.636;2022-09-27T04:11:17;17.95;;;7.72;;
45366;SDS011;31100;55.848;37.636;2022-09-27T04:13:42;14.68;;;7.93;;
45366;SDS011;31100;55.848;37.636;2022-09-27T04:16:08;13.05;;;7.90;;
45366;SDS011;31100;55.848;37.636;2022-09-27T04:18:34;15.80;;;8.10;;
45366;SDS011;31100;55.848;37.636;2022-09-27T04:21:00;16.65;;;8.30;;
45366;SDS011;31100;55.848;37.636;2022-09-27T04:23:26;15.13;;;7.43;;
45366;SDS011;31100;55.848;37.636;2022-09-27T04:25:52;15.10;;;8.20;;
45366;SDS011;31100;55.848;37.636;2022-09-27T04:28:17;16.45;;;8.05;;
45366;SDS011;31100;55.848;37.636;2022-09-27T04:30:44;12.90;;;8.32;;
45366;SDS011;31100;55.848;37.636;2022-09-27T04:33:10;15.10;;;7.55;;
45366;SDS011;31100;55.848;37.636;2022-09-27T04:35:35;14.27;;;7.47;;
45366;SDS011;31100;55.848;37.636;2022-09-27T04:38:19;14.85;;;7.50;;
45366;SDS011;31100;55.848;37.636;2022-09-27T04:40:48;13.10;;;6.85;;
45366;SDS011;31100;55.848;37.636;2022-09-27T04:43:16;12.73;;;7.75;;
45366;SDS011;31100;55.848;37.636;2022-09-27T04:45:42;12.85;;;8.05;;
45366;SDS011;31100;55.848;37.636;2022-09-27T04:48:08;12.80;;;7.85;;
45366;SDS011;31100;55.848;37.636;2022-09-27T04:50:34;14.07;;;7.82;;
45366;SDS011;31100;55.848;37.636;2022-09-27T04:52:59;15.18;;;8.98;;
45366;SDS011;31100;55.848;37.636;2022-09-27T04:55:27;26.80;;;13.45;;
45366;SDS011;31100;55.848;37.636;2022-09-27T04:57:53;25.98;;;13.73;;
45366;SDS011;31100;55.848;37.636;2022-09-27T05:00:19;43.50;;;17.05;;
45366;SDS011;31100;55.848;37.636;2022-09-27T05:02:45;28.33;;;15.52;;
45366;SDS011;31100;55.848;37.636;2022-09-27T05:05:12;26.15;;;13.00;;
45366;SDS011;31100;55.848;37.636;2022-09-27T05:07:38;26.60;;;14.73;;
45366;SDS011;31100;55.848;37.636;2022-09-27T05:10:04;33.35;;;19.02;;
45366;SDS011;31100;55.848;37.636;2022-09-27T05:12:31;60.10;;;15.00;;
45366;SDS011;31100;55.848;37.636;2022-09-27T05:14:56;34.40;;;15.23;;
45366;SDS011;31100;55.848;37.636;2022-09-27T05:17:22;38.65;;;15.40;;
45366;SDS011;31100;55.848;37.636;2022-09-27T05:19:48;25.20;;;14.05;;
45366;SDS011;31100;55.848;37.636;2022-09-27T05:22:14;22.52;;;14.02;;
45366;SDS011;31100;55.848;37.636;2022-09-27T05:24:40;24.05;;;15.05;;
45366;SDS011;31100;55.848;37.636;2022-09-27T05:27:06;31.10;;;17.55;;
45366;SDS011;31100;55.848;37.636;2022-09-27T05:29:33;28.50;;;16.63;;
45366;SDS011;31100;55.848;37.636;2022-09-27T05:31:59;27.02;;;17.30;;
45366;SDS011;31100;55.848;37.636;2022-09-27T05:34:28;31.27;;;18.27;;
45366;SDS011;31100;55.848;37.636;2022-09-27T05:36:56;29.67;;;18.10;;
45366;SDS011;31100;55.848;37.636;2022-09-27T05:39:22;33.25;;;17.88;;
45366;SDS011;31100;55.848;37.636;2022-09-27T05:41:48;31.42;;;17.77;;
45366;SDS011;31100;55.848;37.636;2022-09-27T05:44:14;33.45;;;19.13;;
45366;SDS011;31100;55.848;37.636;2022-09-27T05:46:40;30.60;;;16.80;;
45366;SDS011;31100;55.848;37.636;2022-09-27T05:49:06;31.30;;;19.58;;
45366;SDS011;31100;55.848;37.636;2022-09-27T05:51:31;29.42;;;17.67;;
45366;SDS011;31100;55.848;37.636;2022-09-27T05:53:57;28.08;;;15.38;;
45366;SDS011;31100;55.848;37.636;2022-09-27T05:56:22;26.65;;;15.15;;
45366;SDS011;31100;55.848;37.636;2022-09-27T05:58:49;25.42;;;14.85;;
45366;SDS011;31100;55.848;37.636;2022-09-27T06:01:15;26.48;;;13.98;;
45366;SDS011;31100;55.848;37.636;2022-09-27T06:03:41;20.55;;;12.63;;
45366;SDS011;31100;55.848;37.636;2022-09-27T06:06:07;19.95;;;12.35;;
45366;SDS011;31100;55.848;37.636;2022-09-27T06:08:35;19.70;;;12.07;;
45366;SDS011;31100;55.848;37.636;2022-09-27T06:11:03;20.48;;;11.85;;
45366;SDS011;31100;55.848;37.636;2022-09-27T06:13:31;18.95;;;11.70;;
45366;SDS011;31100;55.848;37.636;2022-09-27T06:16:00;16.98;;;10.85;;
45366;SDS011;31100;55.848;37.636;2022-09-27T06:18:29;20.00;;;12.73;;
45366;SDS011;31100;55.848;37.636;2022-09-27T06:20:54;20.48;;;11.32;;
45366;SDS011;31100;55.848;37.636;2022-09-27T06:23:21;17.20;;;10.90;;
45366;SDS011;31100;55.848;37.636;2022-09-27T06:25:47;15.88;;;9.98;;
45366;SDS011;31100;55.848;37.636;2022-09-27T06:28:14;17.15;;;10.88;;
45366;SDS011;31100;55.848;37.636;2022-09-27T06:30:42;23.10;;;11.85;;
45366;SDS011;31100;55.848;37.636;2022-09-27T06:33:12;31.83;;;11.48;;
45366;SDS011;31100;55.848;37.636;2022-09-27T06:35:40;17.30;;;10.68;;
45366;SDS011;31100;55.848;37.636;2022-09-27T06:38:13;17.08;;;10.77;;
45366;SDS011;31100;55.848;37.636;2022-09-27T06:40:40;16.75;;;11.60;;
45366;SDS011;31100;55.848;37.636;2022-09-27T06:43:09;17.80;;;10.93;;
45366;SDS011;31100;55.848;37.636;2022-09-27T06:45:36;16.65;;;10.90;;
45366;SDS011;31100;55.848;37.636;2022-09-27T06:48:02;16.35;;;11.30;;
45366;SDS011;31100;55.848;37.636;2022-09-27T06:50:29;15.35;;;10.20;;
45366;SDS011;31100;55.848;37.636;2022-09-27T06:52:59;15.00;;;10.63;;
45366;SDS011;31100;55.848;37.636;2022-09-27T06:55:25;12.90;;;9.75;;
45366;SDS011;31100;55.848;37.636;2022-09-27T06:57:57;15.70;;;9.88;;
45366;SDS011;31100;55.848;37.636;2022-09-27T07:00:42;14.32;;;9.73;;
45366;SDS011;31100;55.848;37.636;2022-09-27T07:03:10;14.85;;;10.52;;
45366;SDS011;31100;55.848;37.636;2022-09-27T07:05:38;13.10;;;9.70;;
45366;SDS011;31100;55.848;37.636;2022-09-27T07:08:06;13.23;;;10.23;;
45366;SDS011;31100;55.848;37.636;2022-09-27T07:10:34;15.73;;;9.48;;
45366;SDS011;31100;55.848;37.636;2022-09-27T07:13:05;15.10;;;10.48;;
45366;SDS011;31100;55.848;37.636;2022-09-27T07:15:32;15.73;;;11.30;;
45366;SDS011;31100;55.848;37.636;2022-09-27T07:18:00;16.05;;;11.48;;
45366;SDS011;31100;55.848;37.636;2022-09-27T07:20:26;19.55;;;12.80;;
45366;SDS011;31100;55.848;37.636;2022-09-27T07:22:53;16.92;;;12.10;;
45366;SDS011;31100;55.848;37.636;2022-09-27T07:25:19;17.38;;;12.05;;
45366;SDS011;31100;55.848;37.636;2022-09-27T07:27:44;16.77;;;11.70;;
45366;SDS011;31100;55.848;37.636;2022-09-27T07:30:10;16.65;;;11.32;;
45366;SDS011;31100;55.848;37.636;2022-09-27T07:32:36;15.45;;;11.13;;
45366;SDS011;31100;55.848;37.636;2022-09-27T07:35:03;15.68;;;11.45;;
45366;SDS011;31100;55.848;37.636;2022-09-27T07:37:33;17.05;;;11.75;;
45366;SDS011;31100;55.848;37.636;2022-09-27T07:39:59;14.15;;;11.80;;
45366;SDS011;31100;55.848;37.636;2022-09-27T07:42:25;13.18;;;11.15;;
45366;SDS011;31100;55.848;37.636;2022-09-27T07:44:53;17.27;;;12.43;;
45366;SDS011;31100;55.848;37.636;2022-09-27T07:47:20;15.38;;;12.68;;
45366;SDS011;31100;55.848;37.636;2022-09-27T07:49:50;17.85;;;13.10;;
45366;SDS011;31100;55.848;37.636;2022-09-27T07:52:20;14.50;;;11.85;;
45366;SDS011;31100;55.848;37.636;2022-09-27T07:54:46;15.80;;;12.38;;
45366;SDS011;31100;55.848;37.636;2022-09-27T07:57:12;16.98;;;13.07;;
45366;SDS011;31100;55.848;37.636;2022-09-27T07:59:39;16.38;;;12.88;;
45366;SDS011;31100;55.848;37.636;2022-09-27T08:02:05;16.17;;;12.43;;
45366;SDS011;31100;55.848;37.636;2022-09-27T08:04:31;14.93;;;12.43;;
45366;SDS011;31100;55.848;37.636;2022-09-27T08:06:57;15.52;;;12.65;;
45366;SDS011;31100;55.848;37.636;2022-09-27T08:09:22;18.15;;;13.25;;
45366;SDS011;31100;55.848;37.636;2022-09-27T08:11:50;24.27;;;15.60;;
45366;SDS011;31100;55.848;37.636;2022-09-27T08:14:16;14.43;;;11.63;;
45366;SDS011;31100;55.848;37.636;2022-09-27T08:16:42;15.05;;;12.48;;
45366;SDS011;31100;55.848;37.636;2022-09-27T08:19:11;18.48;;;12.48;;
45366;SDS011;31100;55.848;37.636;2022-09-27T08:21:37;14.52;;;12.10;;
45366;SDS011;31100;55.848;37.636;2022-09-27T08:24:02;14.50;;;11.63;;
45366;SDS011;31100;55.848;37.636;2022-09-27T08:26:28;14.65;;;12.15;;
45366;SDS011;31100;55.848;37.636;2022-09-27T08:28:57;17.10;;;11.75;;
45366;SDS011;31100;55.848;37.636;2022-09-27T08:31:22;14.82;;;12.05;;
45366;SDS011;31100;55.848;37.636;2022-09-27T08:33:49;17.58;;;12.40;;
45366;SDS011;31100;55.848;37.636;2022-09-27T08:36:15;16.38;;;12.65;;
45366;SDS011;31100;55.848;37.636;2022-09-27T08:38:41;15.93;;;12.05;;
45366;SDS011;31100;55.848;37.636;2022-09-27T08:46:26;17.63;;;12.55;;
45366;SDS011;31100;55.848;37.636;2022-09-27T08:51:35;14.65;;;12.18;;
45366;SDS011;31100;55.848;37.636;2022-09-27T08:54:10;16.95;;;14.00;;
45366;SDS011;31100;55.848;37.636;2022-09-27T08:56:46;15.65;;;10.80;;
45366;SDS011;31100;55.848;37.636;2022-09-27T08:59:16;14.75;;;9.68;;
45366;SDS011;31100;55.848;37.636;2022-09-27T09:01:46;11.07;;;9.30;;
45366;SDS011;31100;55.848;37.636;2022-09-27T09:04:14;11.98;;;9.18;;
45366;SDS011;31100;55.848;37.636;2022-09-27T09:16:16;10.40;;;7.90;;
45366;SDS011;31100;55.848;37.636;2022-09-27T09:26:38;11.43;;;7.60;;
45366;SDS011;31100;55.848;37.636;2022-09-27T09:37:07;8.45;;;6.05;;
45366;SDS011;31100;55.848;37.636;2022-09-27T09:49:50;11.95;;;8.50;;
45366;SDS011;31100;55.848;37.636;2022-09-27T09:52:20;9.93;;;7.75;;
45366;SDS011;31100;55.848;37.636;2022-09-27T09:55:34;11.52;;;9.07;;
45366;SDS011;31100;55.848;37.636;2022-09-27T10:00:20;10.48;;;8.40;;
45366;SDS011;31100;55.848;37.636;2022-09-27T10:02:49;12.48;;;7.82;;
45366;SDS011;31100;55.848;37.636;2022-09-27T10:05:19;10.75;;;7.75;;
45366;SDS011;31100;55.848;37.636;2022-09-27T10:07:47;10.48;;;8.00;;
45366;SDS011;31100;55.848;37.636;2022-09-27T10:10:15;9.82;;;7.57;;
45366;SDS011;31100;55.848;37.636;2022-09-27T10:12:45;10.27;;;7.57;;
45366;SDS011;31100;55.848;37.636;2022-09-27T10:15:29;9.55;;;7.50;;
45366;SDS011;31100;55.848;37.636;2022-09-27T10:17:56;10.35;;;7.70;;
45366;SDS011;31100;55.848;37.636;2022-09-27T10:20:27;12.13;;;7.57;;
45366;SDS011;31100;55.848;37.636;2022-09-27T10:23:03;10.40;;;7.70;;
45366;SDS011;31100;55.848;37.636;2022-09-27T10:28:54;10.82;;;8.07;;
45366;SDS011;31100;55.848;37.636;2022-09-27T10:31:16;11.18;;;8.57;;
45366;SDS011;31100;55.848;37.636;2022-09-27T10:34:02;11.73;;;8.15;;
45366;SDS011;31100;55.848;37.636;2022-09-27T10:36:32;12.38;;;9.60;;
45366;SDS011;31100;55.848;37.636;2022-09-27T10:39:00;11.27;;;8.50;;
45366;SDS011;31100;55.848;37.636;2022-09-27T10:41:32;14.15;;;9.10;;
45366;SDS011;31100;55.848;37.636;2022-09-27T10:44:18;13.07;;;8.98;;
45366;SDS011;31100;55.848;37.636;2022-09-27T10:46:47;12.85;;;9.00;;
45366;SDS011;31100;55.848;37.636;2022-09-27T10:49:18;13.30;;;8.57;;
45366;SDS011;31100;55.848;37.636;2022-09-27T10:51:45;13.18;;;8.82;;
45366;SDS011;31100;55.848;37.636;2022-09-27T10:54:21;13.85;;;8.90;;
45366;SDS011;31100;55.848;37.636;2022-09-27T10:56:55;12.77;;;9.60;;
45366;SDS011;31100;55.848;37.636;2022-09-27T10:59:50;14.38;;;8.93;;
45366;SDS011;31100;55.848;37.636;2022-09-27T11:02:30;12.57;;;7.97;;
45366;SDS011;31100;55.848;37.636;2022-09-27T11:05:01;11.63;;;7.88;;
45366;SDS011;31100;55.848;37.636;2022-09-27T11:07:30;12.43;;;8.40;;
45366;SDS011;31100;55.848;37.636;2022-09-27T11:09:56;11.25;;;7.30;;
45366;SDS011;31100;55.848;37.636;2022-09-27T11:12:27;9.63;;;6.55;;
45366;SDS011;31100;55.848;37.636;2022-09-27T11:14:55;8.70;;;6.35;;
45366;SDS011;31100;55.848;37.636;2022-09-27T11:17:31;7.45;;;5.28;;
45366;SDS011;31100;55.848;37.636;2022-09-27T11:20:07;9.10;;;6.72;;
45366;SDS011;31100;55.848;37.636;2022-09-27T11:28:11;8.23;;;6.15;;
45366;SDS011;31100;55.848;37.636;2022-09-27T12:00:39;5.68;;;3.08;;
45366;SDS011;31100;55.848;37.636;2022-09-27T12:06:08;4.32;;;2.63;;
45366;SDS011;31100;55.848;37.636;2022-09-27T12:12:13;5.32;;;3.15;;
45366;SDS011;31100;55.848;37.636;2022-09-27T12:14:34;4.05;;;2.40;;
45366;SDS011;31100;55.848;37.636;2022-09-27T12:17:04;4.93;;;2.95;;
45366;SDS011;31100;55.848;37.636;2022-09-27T12:19:35;4.15;;;2.60;;
45366;SDS011;31100;55.848;37.636;2022-09-27T12:22:06;4.50;;;2.70;;
45366;SDS011;31100;55.848;37.636;2022-09-27T12:24:35;4.13;;;2.90;;
45366;SDS011;31100;55.848;37.636;2022-09-27T12:29:49;5.38;;;3.55;;
45366;SDS011;31100;55.848;37.636;2022-09-27T12:38:11;6.15;;;3.05;;
45366;SDS011;31100;55.848;37.636;2022-09-27T12:40:38;5.03;;;3.03;;
45366;SDS011;31100;55.848;37.636;2022-09-27T12:43:18;6.10;;;3.03;;
45366;SDS011;31100;55.848;37.636;2022-09-27T12:48:43;7.45;;;3.38;;
45366;SDS011;31100;55.848;37.636;2022-09-27T12:51:20;5.53;;;3.00;;
45366;SDS011;31100;55.848;37.636;2022-09-27T12:53:51;6.82;;;3.25;;
45366;SDS011;31100;55.848;37.636;2022-09-27T12:59:34;4.57;;;2.38;;
45366;SDS011;31100;55.848;37.636;2022-09-27T13:11:54;6.60;;;2.67;;
45366;SDS011;31100;55.848;37.636;2022-09-27T13:14:03;4.20;;;2.35;;
45366;SDS011;31100;55.848;37.636;2022-09-27T13:16:29;8.00;;;3.00;;
45366;SDS011;31100;55.848;37.636;2022-09-27T13:18:58;6.40;;;3.08;;
45366;SDS011;31100;55.848;37.636;2022-09-27T13:24:30;6.65;;;2.88;;
45366;SDS011;31100;55.848;37.636;2022-09-27T13:32:41;4.60;;;2.65;;
45366;SDS011;31100;55.848;37.636;2022-09-27T13:35:34;5.05;;;2.83;;
45366;SDS011;31100;55.848;37.636;2022-09-27T13:38:01;7.72;;;3.05;;
45366;SDS011;31100;55.848;37.636;2022-09-27T13:40:37;7.38;;;2.92;;
45366;SDS011;31100;55.848;37.636;2022-09-27T13:45:50;11.20;;;3.38;;
45366;SDS011;31100;55.848;37.636;2022-09-27T13:48:26;6.70;;;3.22;;
45366;SDS011;31100;55.848;37.636;2022-09-27T13:51:00;5.70;;;3.10;;
45366;SDS011;31100;55.848;37.636;2022-09-27T13:53:29;6.03;;;3.80;;
45366;SDS011;31100;55.848;37.636;2022-09-27T13:55:57;7.93;;;3.60;;
45366;SDS011;31100;55.848;37.636;2022-09-27T13:58:29;5.95;;;3.45;;
45366;SDS011;31100;55.848;37.636;2022-09-27T14:00:58;7.63;;;4.10;;
45366;SDS011;31100;55.848;37.636;2022-09-27T14:05:57;8.05;;;3.67;;
45366;SDS011;31100;55.848;37.636;2022-09-27T14:08:28;5.28;;;3.42;;
45366;SDS011;31100;55.848;37.636;2022-09-27T14:10:58;6.47;;;3.60;;
45366;SDS011;31100;55.848;37.636;2022-09-27T14:13:26;5.65;;;3.10;;
45366;SDS011;31100;55.848;37.636;2022-09-27T14:15:53;5.45;;;2.90;;
45366;SDS011;31100;55.848;37.636;2022-09-27T14:18:20;6.20;;;3.00;;
45366;SDS011;31100;55.848;37.636;2022-09-27T14:20:47;6.18;;;2.83;;
45366;SDS011;31100;55.848;37.636;2022-09-27T14:25:48;5.50;;;3.42;;
45366;SDS011;31100;55.848;37.636;2022-09-27T14:28:22;6.40;;;3.72;;
45366;SDS011;31100;55.848;37.636;2022-09-27T14:31:11;5.53;;;3.08;;
45366;SDS011;31100;55.848;37.636;2022-09-27T14:33:38;6.25;;;2.90;;
45366;SDS011;31100;55.848;37.636;2022-09-27T14:36:05;5.25;;;3.05;;
45366;SDS011;31100;55.848;37.636;2022-09-27T14:38:50;4.78;;;2.90;;
45366;SDS011;31100;55.848;37.636;2022-09-27T14:41:15;7.95;;;3.63;;
45366;SDS011;31100;55.848;37.636;2022-09-27T14:43:42;5.95;;;3.88;;
45366;SDS011;31100;55.848;37.636;2022-09-27T14:46:22;8.30;;;3.83;;
45366;SDS011;31100;55.848;37.636;2022-09-27T14:48:50;6.07;;;3.22;;
45366;SDS011;31100;55.848;37.636;2022-09-27T14:51:23;5.60;;;3.55;;
45366;SDS011;31100;55.848;37.636;2022-09-27T14:53:52;10.85;;;3.95;;
45366;SDS011;31100;55.848;37.636;2022-09-27T14:56:34;6.03;;;3.80;;
45366;SDS011;31100;55.848;37.636;2022-09-27T14:59:14;9.60;;;3.35;;
45366;SDS011;31100;55.848;37.636;2022-09-27T15:01:51;7.13;;;3.50;;
45366;SDS011;31100;55.848;37.636;2022-09-27T15:04:16;4.70;;;3.15;;
45366;SDS011;31100;55.848;37.636;2022-09-27T15:06:43;8.70;;;3.67;;
45366;SDS011;31100;55.848;37.636;2022-09-27T15:09:10;5.63;;;3.13;;
45366;SDS011;31100;55.848;37.636;2022-09-27T15:11:41;7.45;;;3.85;;
45366;SDS011;31100;55.848;37.636;2022-09-27T15:14:12;6.82;;;3.80;;
45366;SDS011;31100;55.848;37.636;2022-09-27T15:16:44;5.05;;;3.33;;
45366;SDS011;31100;55.848;37.636;2022-09-27T15:19:15;5.90;;;3.20;;
45366;SDS011;31100;55.848;37.636;2022-09-27T15:21:46;7.88;;;3.45;;
45366;SDS011;31100;55.848;37.636;2022-09-27T15:27:00;5.97;;;3.35;;
45366;SDS011;31100;55.848;37.636;2022-09-27T15:29:26;9.75;;;3.70;;
45366;SDS011;31100;55.848;37.636;2022-09-27T15:32:02;6.43;;;3.55;;
45366;SDS011;31100;55.848;37.636;2022-09-27T15:34:30;5.85;;;3.13;;
45366;SDS011;31100;55.848;37.636;2022-09-27T15:36:57;7.30;;;3.90;;
45366;SDS011;31100;55.848;37.636;2022-09-27T15:42:12;8.60;;;3.95;;
45366;SDS011;31100;55.848;37.636;2022-09-27T15:49:59;10.07;;;4.30;;
45366;SDS011;31100;55.848;37.636;2022-09-27T15:52:50;8.15;;;3.75;;
45366;SDS011;31100;55.848;37.636;2022-09-27T15:55:18;8.50;;;3.60;;
45366;SDS011;31100;55.848;37.636;2022-09-27T15:57:46;7.20;;;4.22;;
45366;SDS011;31100;55.848;37.636;2022-09-27T16:00:15;8.52;;;4.10;;
45366;SDS011;31100;55.848;37.636;2022-09-27T16:02:42;7.20;;;3.58;;
45366;SDS011;31100;55.848;37.636;2022-09-27T16:05:08;6.47;;;3.78;;
45366;SDS011;31100;55.848;37.636;2022-09-27T16:07:33;7.50;;;4.45;;
45366;SDS011;31100;55.848;37.636;2022-09-27T16:10:11;8.73;;;4.72;;
45366;SDS011;31100;55.848;37.636;2022-09-27T16:12:39;7.97;;;4.10;;
45366;SDS011;31100;55.848;37.636;2022-09-27T16:15:09;10.82;;;4.68;;
45366;SDS011;31100;55.848;37.636;2022-09-27T16:17:35;8.85;;;4.82;;
45366;SDS011;31100;55.848;37.636;2022-09-27T16:20:03;7.97;;;4.68;;
45366;SDS011;31100;55.848;37.636;2022-09-27T16:22:31;9.00;;;4.22;;
45366;SDS011;31100;55.848;37.636;2022-09-27T16:24:57;8.07;;;3.92;;
45366;SDS011;31100;55.848;37.636;2022-09-27T16:27:23;6.82;;;4.00;;
45366;SDS011;31100;55.848;37.636;2022-09-27T16:29:54;9.70;;;4.20;;
45366;SDS011;31100;55.848;37.636;2022-09-27T16:32:22;11.27;;;4.45;;
45366;SDS011;31100;55.848;37.636;2022-09-27T16:34:48;8.18;;;4.65;;
45366;SDS011;31100;55.848;37.636;2022-09-27T16:37:14;7.70;;;4.60;;
45366;SDS011;31100;55.848;37.636;2022-09-27T16:39:39;7.65;;;3.58;;
45366;SDS011;31100;55.848;37.636;2022-09-27T16:42:07;7.03;;;3.72;;
45366;SDS011;31100;55.848;37.636;2022-09-27T16:44:34;6.05;;;4.22;;
45366;SDS011;31100;55.848;37.636;2022-09-27T16:47:00;9.93;;;4.80;;
45366;SDS011;31100;55.848;37.636;2022-09-27T16:49:28;7.45;;;4.40;;
45366;SDS011;31100;55.848;37.636;2022-09-27T16:52:13;6.82;;;4.18;;
45366;SDS011;31100;55.848;37.636;2022-09-27T16:54:40;6.63;;;4.10;;
45366;SDS011;31100;55.848;37.636;2022-09-27T16:57:06;7.18;;;4.55;;
45366;SDS011;31100;55.848;37.636;2022-09-27T16:59:31;7.75;;;4.88;;
45366;SDS011;31100;55.848;37.636;2022-09-27T17:02:00;7.15;;;3.95;;
45366;SDS011;31100;55.848;37.636;2022-09-27T17:04:56;6.95;;;4.10;;
45366;SDS011;31100;55.848;37.636;2022-09-27T17:10:36;8.80;;;3.95;;
45366;SDS011;31100;55.848;37.636;2022-09-27T17:13:11;6.57;;;4.15;;
45366;SDS011;31100;55.848;37.636;2022-09-27T17:16:16;6.72;;;4.18;;
45366;SDS011;31100;55.848;37.636;2022-09-27T17:21:30;6.00;;;4.22;;
45366;SDS011;31100;55.848;37.636;2022-09-27T17:27:17;6.40;;;4.30;;
45366;SDS011;31100;55.848;37.636;2022-09-27T17:29:47;5.00;;;3.70;;
45366;SDS011;31100;55.848;37.636;2022-09-27T17:32:14;6.57;;;4.40;;
45366;SDS011;31100;55.848;37.636;2022-09-27T17:34:40;6.97;;;3.70;;
45366;SDS011;31100;55.848;37.636;2022-09-27T17:37:08;5.43;;;4.28;;
45366;SDS011;31100;55.848;37.636;2022-09-27T17:39:38;7.88;;;4.03;;
45366;SDS011;31100;55.848;37.636;2022-09-27T17:42:04;8.32;;;4.70;;
45366;SDS011;31100;55.848;37.636;2022-09-27T17:44:30;6.65;;;3.97;;
45366;SDS011;31100;55.848;37.636;2022-09-27T17:46:56;6.47;;;4.65;;
45366;SDS011;31100;55.848;37.636;2022-09-27T17:49:40;9.98;;;4.53;;
45366;SDS011;31100;55.848;37.636;2022-09-27T17:52:24;9.40;;;4.65;;
45366;SDS011;31100;55.848;37.636;2022-09-27T17:54:54;8.65;;;4.90;;